createdAt,value
2019-01-29T00:01:35.462Z,51.90
2019-01-29T00:04:07.329Z,51.85
2019-01-29T00:06:40.110Z,52.36
2019-01-29T00:09:13.193Z,52.66
2019-01-29T00:11:47.411Z,51.53
2019-01-29T00:14:18.682Z,51.13
2019-01-29T00:16:50.621Z,52.15
2019-01-29T00:19:23.968Z,53.18
2019-01-29T00:21:55.601Z,52.29
2019-01-29T00:24:27.937Z,51.75
2019-01-29T00:27:00.000Z,52.01
2019-01-29T00:29:33.025Z,51.67
2019-01-29T00:32:05.004Z,51.69
2019-01-29T00:34:36.217Z,51.25
2019-01-29T00:37:08.323Z,51.62
2019-01-29T00:39:42.182Z,51.41
2019-01-29T00:42:13.338Z,52.10
2019-01-29T00:44:46.550Z,51.90
2019-01-29T00:47:18.626Z,52.92
2019-01-29T00:49:54.976Z,52.04
2019-01-29T00:52:26.796Z,52.41
2019-01-29T00:54:59.729Z,53.02
2019-01-29T00:57:31.090Z,52.91
2019-01-29T01:00:04.320Z,52.59
2019-01-29T01:02:35.207Z,52.43
2019-01-29T01:05:08.321Z,54.39
2019-01-29T01:07:43.971Z,53.99
2019-01-29T01:10:19.459Z,53.26
2019-01-29T01:12:51.751Z,53.09
2019-01-29T01:15:27.707Z,53.38
2019-01-29T01:17:59.481Z,52.91
2019-01-29T01:20:30.916Z,52.51
2019-01-29T01:23:02.817Z,51.91
2019-01-29T01:25:37.954Z,53.77
2019-01-29T01:28:09.808Z,53.59
2019-01-29T01:30:42.614Z,52.68
2019-01-29T01:33:13.500Z,53.27
2019-01-29T01:35:44.911Z,53.34
2019-01-29T01:38:16.411Z,53.25
2019-01-29T01:40:49.334Z,52.72
2019-01-29T01:43:23.182Z,52.16
2019-01-29T01:45:54.921Z,52.07
2019-01-29T01:48:25.428Z,54.19
2019-01-29T01:50:57.870Z,53.63
2019-01-29T01:53:30.202Z,53.28
2019-01-29T01:56:05.062Z,52.29
2019-01-29T01:58:36.358Z,52.62
2019-01-29T02:01:10.497Z,52.29
2019-01-29T02:03:41.280Z,52.27
2019-01-29T02:06:15.673Z,51.87
2019-01-29T02:08:49.520Z,52.00
2019-01-29T02:11:24.556Z,51.31
2019-01-29T02:13:57.407Z,50.94
2019-01-29T02:16:28.833Z,51.06
2019-01-29T02:19:03.159Z,50.82
2019-01-29T02:21:35.291Z,50.87
2019-01-29T02:24:09.911Z,51.47
2019-01-29T02:26:43.329Z,51.29
2019-01-29T02:29:14.763Z,50.92
2019-01-29T02:31:50.492Z,50.24
2019-01-29T02:34:22.271Z,50.30
2019-01-29T02:36:55.022Z,50.61
2019-01-29T02:39:27.402Z,51.67
2019-01-29T02:42:01.382Z,51.16
2019-01-29T02:44:37.465Z,50.98
2019-01-29T02:47:11.602Z,50.89
2019-01-29T02:49:44.387Z,51.50
2019-01-29T02:52:16.798Z,50.92
2019-01-29T02:54:51.078Z,50.51
2019-01-29T02:57:23.506Z,49.85
2019-01-29T02:59:54.696Z,49.77
2019-01-29T03:02:27.294Z,50.45
2019-01-29T03:05:00.596Z,50.91
2019-01-29T03:07:34.399Z,50.07
2019-01-29T03:10:10.212Z,51.53
2019-01-29T03:12:43.825Z,51.32
2019-01-29T03:15:18.720Z,52.60
2019-01-29T03:17:53.608Z,52.16
2019-01-29T03:20:26.287Z,51.87
2019-01-29T03:23:01.093Z,51.84
2019-01-29T03:25:33.164Z,53.55
2019-01-29T03:28:07.355Z,52.82
2019-01-29T03:30:39.277Z,52.75
2019-01-29T03:33:11.860Z,55.31
2019-01-29T03:35:51.369Z,53.24
2019-01-29T03:38:22.343Z,52.40
2019-01-29T03:40:52.708Z,53.26
2019-01-29T03:43:26.926Z,53.18
2019-01-29T03:45:58.949Z,52.47
2019-01-29T03:48:31.035Z,52.02
2019-01-29T03:51:03.786Z,52.29
2019-01-29T03:53:38.123Z,51.84
2019-01-29T03:56:14.353Z,51.41
2019-01-29T03:58:47.754Z,50.83
2019-01-29T04:01:22.065Z,51.49
2019-01-29T04:03:53.808Z,52.61
2019-01-29T04:06:29.212Z,52.73
2019-01-29T04:09:00.949Z,52.83
2019-01-29T04:11:33.692Z,52.37
2019-01-29T04:14:05.644Z,52.09
2019-01-29T04:16:38.905Z,52.15
2019-01-29T04:19:17.411Z,51.63
2019-01-29T04:21:48.970Z,51.37
2019-01-29T04:24:21.927Z,50.82
2019-01-29T04:26:55.641Z,52.50
2019-01-29T04:29:32.857Z,52.70
2019-01-29T04:32:06.132Z,51.84
2019-01-29T04:34:39.727Z,51.07
2019-01-29T04:37:19.040Z,51.26
2019-01-29T04:39:51.413Z,51.60
2019-01-29T04:42:21.968Z,50.79
2019-01-29T04:44:55.707Z,50.72
2019-01-29T04:47:28.431Z,50.47
2019-01-29T04:50:01.075Z,51.09
2019-01-29T04:52:32.566Z,50.99
2019-01-29T04:55:04.096Z,50.56
2019-01-29T04:57:36.216Z,50.92
2019-01-29T05:00:27.769Z,50.78
2019-01-29T05:02:59.822Z,52.47
2019-01-29T05:05:33.298Z,51.57
2019-01-29T05:08:03.926Z,51.11
2019-01-29T05:10:35.630Z,52.75
2019-01-29T05:13:09.648Z,52.16
2019-01-29T05:15:43.943Z,51.82
2019-01-29T05:18:15.409Z,51.55
2019-01-29T05:20:49.611Z,51.45
2019-01-29T05:23:21.098Z,51.48
2019-01-29T05:25:52.867Z,51.87
2019-01-29T05:28:25.947Z,51.83
2019-01-29T05:30:58.855Z,52.14
2019-01-29T05:33:29.110Z,51.06
2019-01-29T05:36:01.994Z,51.27
2019-01-29T05:38:37.944Z,50.67
2019-01-29T05:41:10.267Z,50.69
2019-01-29T05:43:41.902Z,50.56
2019-01-29T05:46:14.391Z,51.36
2019-01-29T05:48:46.194Z,52.21
2019-01-29T05:51:18.901Z,52.68
2019-01-29T05:53:50.184Z,55.24
2019-01-29T05:56:28.565Z,53.43
2019-01-29T05:59:01.733Z,52.54
2019-01-29T06:01:35.217Z,53.65
2019-01-29T06:04:07.256Z,54.88
2019-01-29T06:06:46.295Z,53.87
2019-01-29T06:09:17.954Z,53.09
2019-01-29T06:11:50.379Z,51.63
2019-01-29T06:14:23.753Z,51.65
2019-01-29T06:16:55.385Z,51.59
2019-01-29T06:19:25.800Z,51.37
2019-01-29T06:21:57.984Z,51.08
2019-01-29T06:24:29.152Z,51.49
2019-01-29T06:27:02.987Z,50.58
2019-01-29T06:29:37.051Z,50.11
2019-01-29T06:32:10.807Z,49.83
2019-01-29T06:34:45.371Z,50.10
2019-01-29T06:37:16.943Z,49.53
2019-01-29T06:39:48.184Z,49.30
2019-01-29T06:42:20.250Z,49.86
2019-01-29T06:44:50.840Z,49.94
2019-01-29T06:47:24.989Z,49.05
2019-01-29T06:49:56.362Z,48.95
2019-01-29T06:52:28.204Z,48.97
2019-01-29T06:54:59.683Z,49.04
2019-01-29T06:57:31.961Z,49.00
2019-01-29T07:00:03.651Z,50.47
2019-01-29T07:02:37.064Z,49.43
2019-01-29T07:05:07.875Z,49.64
2019-01-29T07:07:38.928Z,49.48
2019-01-29T07:10:13.673Z,49.06
2019-01-29T07:12:47.565Z,50.55
2019-01-29T07:15:39.643Z,50.34
2019-01-29T07:18:31.167Z,50.31
2019-01-29T07:21:07.291Z,50.16
2019-01-29T07:23:41.247Z,50.42
2019-01-29T07:26:13.167Z,50.38
2019-01-29T07:28:43.852Z,49.35
2019-01-29T07:31:17.824Z,50.17
2019-01-29T07:33:54.891Z,49.25
2019-01-29T07:36:25.764Z,49.12
2019-01-29T07:38:59.941Z,49.48
2019-01-29T07:41:36.129Z,49.97
2019-01-29T07:44:08.316Z,50.57
2019-01-29T07:46:40.385Z,49.22
2019-01-29T07:49:11.749Z,49.55
2019-01-29T07:51:45.655Z,48.81
2019-01-29T07:54:17.401Z,49.41
2019-01-29T07:56:48.324Z,49.58
2019-01-29T07:59:32.382Z,50.62
2019-01-29T08:01:54.687Z,49.77
2019-01-29T08:04:33.435Z,49.49
2019-01-29T08:07:04.427Z,50.39
2019-01-29T08:09:37.145Z,49.31
2019-01-29T08:12:11.170Z,48.91
2019-01-29T08:14:43.221Z,49.77
2019-01-29T08:17:17.264Z,50.06
2019-01-29T08:19:49.456Z,48.90
2019-01-29T08:22:22.634Z,48.47
2019-01-29T08:25:01.709Z,49.74
2019-01-29T08:27:28.751Z,50.86
2019-01-29T08:29:59.093Z,49.89
2019-01-29T08:32:29.680Z,49.46
2019-01-29T08:35:02.930Z,49.21
2019-01-29T08:37:33.968Z,52.78
2019-01-29T08:40:09.084Z,51.88
2019-01-29T08:42:42.491Z,51.74
2019-01-29T08:45:14.389Z,52.76
2019-01-29T08:47:46.508Z,52.26
2019-01-29T08:50:22.106Z,50.30
2019-01-29T08:52:53.376Z,50.14
2019-01-29T08:55:28.464Z,51.76
2019-01-29T08:58:03.737Z,50.17
2019-01-29T09:00:38.089Z,50.21
2019-01-29T09:03:08.947Z,49.17
2019-01-29T09:05:50.173Z,48.81
2019-01-29T09:08:22.342Z,50.00
2019-01-29T09:10:53.539Z,50.39
2019-01-29T09:13:28.771Z,51.67
2019-01-29T09:16:00.719Z,50.82
2019-01-29T09:18:34.150Z,50.43
2019-01-29T09:21:06.597Z,49.99
2019-01-29T09:23:39.369Z,50.55
2019-01-29T09:26:11.806Z,49.85
2019-01-29T09:28:43.969Z,50.89
2019-01-29T09:31:16.522Z,51.25
2019-01-29T09:33:48.462Z,49.90
2019-01-29T09:36:20.588Z,48.67
2019-01-29T09:38:53.713Z,49.92
2019-01-29T09:41:25.169Z,48.18
2019-01-29T09:43:59.087Z,49.15
2019-01-29T09:46:31.235Z,48.87
2019-01-29T09:49:03.311Z,49.19
2019-01-29T09:51:38.233Z,49.21
2019-01-29T09:54:15.756Z,48.45
2019-01-29T09:56:54.840Z,48.31
2019-01-29T09:59:25.119Z,48.67
2019-01-29T10:01:56.616Z,47.37
2019-01-29T10:04:28.587Z,46.62
2019-01-29T10:07:00.858Z,46.55
2019-01-29T10:09:33.121Z,46.12
2019-01-29T10:12:05.660Z,46.03
2019-01-29T10:14:36.951Z,46.32
2019-01-29T10:17:09.641Z,46.00
2019-01-29T10:19:44.194Z,45.39
2019-01-29T10:22:17.121Z,44.66
2019-01-29T10:24:48.779Z,44.21
2019-01-29T10:27:20.527Z,43.34
2019-01-29T10:29:53.420Z,42.49
2019-01-29T10:32:26.499Z,42.01
2019-01-29T10:34:57.722Z,42.54
2019-01-29T10:37:30.220Z,43.22
2019-01-29T10:40:03.594Z,41.18
2019-01-29T10:42:36.243Z,40.77
2019-01-29T10:45:12.238Z,38.96
2019-01-29T10:47:44.781Z,39.43
2019-01-29T10:50:21.046Z,39.67
2019-01-29T10:52:56.390Z,39.97
2019-01-29T10:55:32.342Z,39.32
2019-01-29T10:58:02.995Z,39.03
2019-01-29T11:00:37.165Z,40.12
2019-01-29T11:03:20.605Z,39.81
2019-01-29T11:05:54.860Z,39.55
2019-01-29T11:08:26.636Z,39.40
2019-01-29T11:10:58.702Z,39.21
2019-01-29T11:13:30.436Z,39.26
2019-01-29T11:16:01.639Z,38.26
2019-01-29T11:18:33.064Z,36.30
2019-01-29T11:21:07.835Z,35.32
2019-01-29T11:23:42.408Z,37.58
2019-01-29T11:26:13.789Z,37.48
2019-01-29T11:28:45.485Z,36.67
2019-01-29T11:31:18.882Z,34.85
2019-01-29T11:33:50.272Z,33.72
2019-01-29T11:36:21.951Z,32.41
2019-01-29T11:38:55.951Z,32.80
2019-01-29T11:41:27.191Z,34.42
2019-01-29T11:44:00.594Z,36.84
2019-01-29T11:46:33.419Z,36.09
2019-01-29T11:49:05.772Z,35.56
2019-01-29T11:51:37.645Z,35.16
2019-01-29T11:54:10.519Z,35.06
2019-01-29T11:56:41.791Z,37.78
2019-01-29T11:59:14.588Z,36.14
2019-01-29T12:01:45.838Z,36.72
2019-01-29T12:04:19.110Z,36.16
2019-01-29T12:06:50.279Z,36.10
2019-01-29T12:09:23.392Z,35.44
2019-01-29T12:11:55.099Z,35.54
2019-01-29T12:14:33.102Z,33.74
2019-01-29T12:17:05.570Z,34.73
2019-01-29T12:19:38.784Z,34.24
2019-01-29T12:22:12.045Z,34.14
2019-01-29T12:24:44.603Z,34.36
2019-01-29T12:27:16.404Z,33.93
2019-01-29T12:29:48.809Z,34.68
2019-01-29T12:32:20.900Z,35.78
2019-01-29T12:34:51.961Z,36.31
2019-01-29T12:37:23.967Z,36.05
2019-01-29T12:39:58.049Z,35.33
2019-01-29T12:42:32.094Z,33.41
2019-01-29T12:45:06.079Z,32.66
2019-01-29T12:47:37.416Z,33.64
2019-01-29T12:50:12.520Z,32.31
2019-01-29T12:52:51.485Z,31.42
2019-01-29T12:55:23.204Z,29.70
2019-01-29T12:57:53.741Z,30.42
2019-01-29T13:00:26.727Z,30.25
2019-01-29T13:02:58.631Z,30.22
2019-01-29T13:05:32.721Z,32.89
2019-01-29T13:08:05.848Z,31.73
2019-01-29T13:10:38.509Z,31.08
2019-01-29T13:13:11.016Z,30.72
2019-01-29T13:15:42.761Z,29.54
2019-01-29T13:18:14.101Z,29.15
2019-01-29T13:20:46.969Z,27.97
2019-01-29T13:23:21.811Z,26.69
2019-01-29T13:25:55.997Z,27.24
2019-01-29T13:28:27.373Z,28.53
2019-01-29T13:31:02.258Z,28.42
2019-01-29T13:33:35.451Z,29.63
2019-01-29T13:36:08.681Z,30.24
2019-01-29T13:38:40.873Z,31.04
2019-01-29T13:41:13.512Z,30.11
2019-01-29T13:43:45.107Z,31.49
2019-01-29T13:46:16.969Z,30.48
2019-01-29T13:48:48.693Z,31.24
2019-01-29T13:51:23.030Z,31.90
2019-01-29T13:53:55.664Z,31.52
2019-01-29T13:56:38.579Z,32.81
2019-01-29T13:59:03.287Z,31.76
2019-01-29T14:01:36.064Z,32.82
2019-01-29T14:04:08.998Z,33.27
2019-01-29T14:06:52.522Z,32.62
2019-01-29T14:09:43.080Z,32.70
2019-01-29T14:12:30.560Z,32.65
2019-01-29T14:15:14.656Z,32.63
2019-01-29T14:18:08.029Z,33.59
2019-01-29T14:20:55.225Z,34.88
2019-01-29T14:23:28.854Z,34.84
2019-01-29T14:26:03.980Z,34.89
2019-01-29T14:28:36.598Z,35.21
2019-01-29T14:31:10.946Z,36.44
2019-01-29T14:33:44.428Z,36.67
2019-01-29T14:36:18.957Z,37.02
2019-01-29T14:39:50.061Z,37.08
2019-01-29T14:42:21.559Z,37.80
2019-01-29T14:44:56.544Z,38.65
2019-01-29T14:47:34.154Z,38.74
2019-01-29T14:50:05.165Z,38.29
2019-01-29T14:52:38.398Z,39.14
2019-01-29T14:55:11.764Z,38.15
2019-01-29T14:57:47.506Z,37.82
2019-01-29T15:00:25.273Z,38.22
2019-01-29T15:02:56.637Z,37.76
2019-01-29T15:05:29.450Z,37.26
2019-01-29T15:08:06.800Z,38.40
2019-01-29T15:10:39.286Z,38.47
2019-01-29T15:13:10.494Z,38.21
2019-01-29T15:15:47.424Z,38.05
2019-01-29T15:18:28.513Z,38.37
2019-01-29T15:21:00.562Z,38.31
2019-01-29T15:23:34.472Z,38.01
2019-01-29T15:26:05.701Z,38.02
2019-01-29T15:28:36.999Z,38.06
2019-01-29T15:31:10.473Z,37.48
2019-01-29T15:33:42.527Z,35.75
2019-01-29T15:36:13.764Z,35.26
2019-01-29T15:38:45.319Z,34.67
2019-01-29T15:41:15.754Z,34.94
2019-01-29T15:43:47.256Z,34.87
2019-01-29T15:46:21.610Z,35.01
2019-01-29T15:48:54.991Z,35.58
2019-01-29T15:51:26.856Z,35.61
2019-01-29T15:54:00.355Z,35.16
2019-01-29T15:56:32.879Z,35.51
2019-01-29T15:59:04.187Z,35.76
2019-01-29T16:01:37.104Z,36.04
2019-01-29T16:04:08.977Z,35.91
2019-01-29T16:06:42.727Z,36.05
2019-01-29T16:09:13.124Z,36.40
2019-01-29T16:11:45.591Z,36.48
2019-01-29T16:14:17.875Z,36.35
2019-01-29T16:17:08.295Z,36.93
2019-01-29T16:19:41.476Z,37.25
2019-01-29T16:22:13.669Z,37.58
2019-01-29T16:24:47.279Z,37.34
2019-01-29T16:27:22.824Z,37.67
2019-01-29T16:29:55.454Z,37.38
2019-01-29T16:32:28.688Z,37.28
2019-01-29T16:35:00.810Z,37.03
2019-01-29T16:37:34.024Z,37.73
2019-01-29T16:40:05.415Z,37.38
2019-01-29T16:42:39.062Z,37.94
2019-01-29T16:45:16.641Z,37.99
2019-01-29T16:47:48.599Z,37.89
2019-01-29T16:50:21.944Z,38.19
2019-01-29T16:52:54.086Z,39.15
2019-01-29T16:55:25.175Z,39.29
2019-01-29T16:57:57.512Z,38.95
2019-01-29T17:00:34.073Z,39.54
2019-01-29T17:03:07.871Z,39.22
2019-01-29T17:05:40.761Z,39.14
2019-01-29T17:08:15.762Z,39.64
2019-01-29T17:10:48.474Z,39.87
2019-01-29T17:13:20.761Z,39.86
2019-01-29T17:15:51.906Z,40.01
2019-01-29T17:18:24.774Z,39.66
2019-01-29T17:20:57.786Z,39.78
2019-01-29T17:23:29.351Z,39.19
2019-01-29T17:26:02.736Z,39.36
2019-01-29T17:28:35.146Z,39.61
2019-01-29T17:31:06.765Z,38.76
2019-01-29T17:33:40.482Z,39.60
2019-01-29T17:36:12.444Z,40.14
2019-01-29T17:38:45.965Z,39.98
2019-01-29T17:41:19.309Z,39.21
2019-01-29T17:43:50.925Z,39.45
2019-01-29T17:46:22.866Z,39.89
2019-01-29T17:48:56.057Z,39.99
2019-01-29T17:51:29.421Z,39.55
2019-01-29T17:54:02.557Z,39.59
2019-01-29T17:56:33.944Z,40.03
2019-01-29T17:59:06.591Z,39.82
2019-01-29T18:01:38.137Z,40.14
2019-01-29T18:04:11.327Z,40.03
2019-01-29T18:06:43.501Z,40.06
2019-01-29T18:09:15.377Z,40.35
2019-01-29T18:11:48.514Z,39.72
2019-01-29T18:14:20.301Z,39.32
2019-01-29T18:16:53.067Z,39.50
2019-01-29T18:19:27.432Z,39.71
2019-01-29T18:21:59.494Z,40.33
2019-01-29T18:24:32.250Z,40.49
2019-01-29T18:27:03.868Z,39.75
2019-01-29T18:29:36.004Z,40.11
2019-01-29T18:32:08.721Z,40.31
2019-01-29T18:34:40.052Z,40.43
2019-01-29T18:37:12.775Z,41.41
2019-01-29T18:39:44.035Z,41.75
2019-01-29T18:42:15.679Z,41.26
2019-01-29T18:44:46.981Z,42.15
2019-01-29T18:47:19.497Z,41.98
2019-01-29T18:49:51.587Z,42.54
2019-01-29T18:52:21.861Z,42.36
2019-01-29T18:54:52.260Z,42.31
2019-01-29T18:57:25.661Z,42.80
2019-01-29T18:59:58.171Z,43.73
2019-01-29T19:02:28.743Z,44.24
2019-01-29T19:05:01.677Z,43.92
2019-01-29T19:07:34.689Z,43.48
2019-01-29T19:10:06.609Z,43.25
2019-01-29T19:12:41.271Z,42.75
2019-01-29T19:15:15.201Z,43.14
2019-01-29T19:17:46.473Z,43.55
2019-01-29T19:20:24.032Z,43.78
2019-01-29T19:22:58.372Z,43.83
2019-01-29T19:25:32.929Z,43.80
2019-01-29T19:28:07.455Z,44.10
2019-01-29T19:30:39.057Z,45.43
2019-01-29T19:33:10.529Z,45.42
2019-01-29T19:35:42.018Z,44.43
2019-01-29T19:38:13.611Z,44.35
2019-01-29T19:40:46.261Z,45.25
2019-01-29T19:43:18.061Z,43.82
2019-01-29T19:45:56.497Z,44.55
2019-01-29T19:48:29.846Z,45.31
2019-01-29T19:51:00.672Z,45.37
2019-01-29T19:53:32.160Z,44.38
2019-01-29T19:56:03.498Z,45.18
2019-01-29T19:58:36.029Z,45.25
2019-01-29T20:01:08.108Z,44.92
2019-01-29T20:03:39.259Z,45.26
2019-01-29T20:06:11.696Z,45.07
2019-01-29T20:08:42.568Z,45.12
2019-01-29T20:11:21.208Z,45.92
2019-01-29T20:14:01.282Z,45.73
2019-01-29T20:16:34.526Z,46.37
2019-01-29T20:19:07.206Z,45.41
2019-01-29T20:21:39.475Z,44.58
2019-01-29T20:24:10.682Z,44.64
2019-01-29T20:26:46.031Z,45.77
2019-01-29T20:29:27.431Z,45.85
2019-01-29T20:32:00.471Z,44.84
2019-01-29T20:34:31.568Z,44.54
2019-01-29T20:37:03.980Z,45.82
2019-01-29T20:39:35.651Z,45.12
2019-01-29T20:42:07.288Z,47.10
2019-01-29T20:44:38.242Z,45.92
2019-01-29T20:47:09.485Z,45.55
2019-01-29T20:49:39.934Z,45.46
2019-01-29T20:52:12.308Z,45.75
2019-01-29T20:54:43.001Z,45.43
2019-01-29T20:57:14.169Z,45.41
2019-01-29T20:59:44.883Z,44.55
2019-01-29T21:02:17.030Z,44.83
2019-01-29T21:04:48.691Z,46.12
2019-01-29T21:07:20.795Z,44.75
2019-01-29T21:09:53.825Z,44.35
2019-01-29T21:12:24.649Z,44.53
2019-01-29T21:14:56.261Z,44.14
2019-01-29T21:17:27.964Z,44.41
2019-01-29T21:20:02.165Z,45.39
2019-01-29T21:22:33.300Z,44.24
2019-01-29T21:25:06.495Z,44.09
2019-01-29T21:27:39.750Z,44.19
2019-01-29T21:30:18.812Z,44.64
2019-01-29T21:32:50.334Z,44.40
2019-01-29T21:35:23.261Z,45.28
2019-01-29T21:38:00.855Z,46.52
2019-01-29T21:40:32.166Z,44.87
2019-01-29T21:43:02.746Z,46.16
2019-01-29T21:45:34.436Z,45.67
2019-01-29T21:48:08.756Z,46.51
2019-01-29T21:50:40.675Z,45.48
2019-01-29T21:53:12.294Z,45.42
2019-01-29T21:55:44.416Z,45.83
2019-01-29T21:58:18.108Z,46.65
2019-01-29T22:00:48.533Z,46.47
2019-01-29T22:03:19.679Z,45.94
2019-01-29T22:05:50.746Z,45.44
2019-01-29T22:08:24.123Z,47.29
2019-01-29T22:10:54.855Z,46.53
2019-01-29T22:13:25.902Z,47.37
2019-01-29T22:15:57.005Z,47.03
2019-01-29T22:18:28.418Z,47.83
2019-01-29T22:21:01.297Z,46.77
2019-01-29T22:23:33.756Z,45.88
2019-01-29T22:26:04.926Z,46.35
2019-01-29T22:28:37.000Z,47.51
2019-01-29T22:31:08.554Z,49.05
2019-01-29T22:33:39.221Z,49.29
2019-01-29T22:36:13.001Z,48.01
2019-01-29T22:38:48.200Z,48.11
2019-01-29T22:41:19.348Z,49.56
2019-01-29T22:43:49.712Z,49.02
2019-01-29T22:46:20.026Z,49.34
2019-01-29T22:48:52.305Z,50.23
2019-01-29T22:51:23.928Z,50.77
2019-01-29T22:53:55.405Z,49.83
2019-01-29T22:56:25.995Z,51.42
2019-01-29T22:58:56.892Z,50.14
2019-01-29T23:01:37.437Z,50.91
2019-01-29T23:04:24.621Z,49.81
2019-01-29T23:07:22.725Z,49.42
2019-01-29T23:09:56.981Z,48.41
2019-01-29T23:12:28.596Z,48.59
2019-01-29T23:15:02.198Z,48.41
2019-01-29T23:17:33.546Z,48.58
2019-01-29T23:20:06.544Z,49.43
2019-01-29T23:22:36.822Z,49.91
2019-01-29T23:25:10.260Z,50.19
2019-01-29T23:27:44.767Z,49.45
2019-01-29T23:30:19.696Z,48.78
2019-01-29T23:32:54.045Z,49.24
2019-01-29T23:35:25.860Z,47.84
2019-01-29T23:37:57.411Z,49.23
2019-01-29T23:40:30.118Z,50.93
2019-01-29T23:43:04.415Z,49.86
2019-01-29T23:45:35.413Z,50.59
2019-01-29T23:48:06.641Z,50.16
2019-01-29T23:50:37.854Z,49.23
2019-01-29T23:53:10.613Z,50.82
2019-01-29T23:55:45.632Z,50.51
2019-01-29T23:58:16.918Z,49.74
